Accueil
METAR-TAF:

METAR-TAF

Aéroports :

Base aérienne Cameri

Novare, Italie

latitude: 45-31N, longitude: 008-40E, altitude: 178 m

Observation

Le bulletin a été fait il y a 14 heures et 33 minutes, à 17:55 UTC
Vent 4 kt de est/nord-est
Température 11°C
Humidité 66%
Pression 1026 hPa
Visibilité 10 km ou plus
Nuages épars à une hauteur de 2500 ft
Nuages fragmentés à une hauteur de 6000 ft

METAR: LIMN 161755Z 06004KT 9999 SCT025 BKN060 11/05 Q1026 RMK OVC VIS MIN 9999 BLU

Heure: 09:28 (08:28 UTC)

Prévision

Le bulletin a été fait il y a 15 heures et 28 minutes, à 17:00 UTC
Prévision valable du 16 à 18 UTC au 17 à 03 UTC
Vent 10 kt de nord-est
Visibilité 10 km ou plus
Nuages épars à une hauteur de 2500 ft
Nuages fragmentés à une hauteur de 6000 ft

TAF: LIMN 161700Z 1618/1703 04010KT 9999 SCT025 BKN060

Observations et prévisions météorologiques de plus de 4000 aéroports (messages METAR et TAF).

Les stations disponibles sont représentées par des disques jaunes et rouges sur la carte.

Passer la souris dessus pour voir le nom de la station.

Cliquer dessus pour voir les observations et prévisions météorologiques.

Pour changer de carte: cliquez sur les boutons verts avec une croix noire pour zoomer, sur le bouton vert avec un tiret pour effectuer un zoom arrière, ou sur les flèches vertes pour les cartes adjacentes.


METAR-TAF: